createdAt,value
2023-03-06T00:00:35.351Z,1000.25
2023-03-06T00:01:35.190Z,1000.31
2023-03-06T00:02:35.186Z,1000.31
2023-03-06T00:03:35.206Z,1000.31
2023-03-06T00:04:35.198Z,1000.33
2023-03-06T00:05:35.196Z,1000.29
2023-03-06T00:06:35.153Z,1000.28
2023-03-06T00:07:35.217Z,1000.24
2023-03-06T00:08:35.117Z,1000.24
2023-03-06T00:09:35.114Z,1000.25
2023-03-06T00:10:35.180Z,1000.22
2023-03-06T00:11:35.112Z,1000.20
2023-03-06T00:12:35.108Z,1000.19
2023-03-06T00:13:35.102Z,1000.21
2023-03-06T00:14:35.064Z,1000.14
2023-03-06T00:15:35.794Z,1000.18
2023-03-06T00:16:35.073Z,1000.12
2023-03-06T00:17:35.064Z,1000.16
2023-03-06T00:18:35.033Z,1000.14
2023-03-06T00:19:35.038Z,1000.14
2023-03-06T00:20:35.015Z,1000.14
2023-03-06T00:21:35.015Z,1000.16
2023-03-06T00:22:35.001Z,1000.19
2023-03-06T00:23:34.997Z,1000.14
2023-03-06T00:24:34.988Z,1000.11
2023-03-06T00:25:34.970Z,1000.10
2023-03-06T00:26:34.964Z,1000.02
2023-03-06T00:27:34.948Z,1000.01
2023-03-06T00:28:34.945Z,1000.01
2023-03-06T00:29:34.934Z,999.98
2023-03-06T00:30:34.929Z,1000.02
2023-03-06T00:31:34.962Z,1000.02
2023-03-06T00:32:34.956Z,1000.07
2023-03-06T00:33:34.897Z,1000.02
2023-03-06T00:34:34.889Z,1000.01
2023-03-06T00:35:34.893Z,1000.01
2023-03-06T00:36:34.864Z,999.95
2023-03-06T00:37:34.862Z,999.95
2023-03-06T00:38:34.866Z,999.91
2023-03-06T00:39:34.840Z,999.88
2023-03-06T00:40:34.835Z,999.84
2023-03-06T00:41:34.822Z,999.80
2023-03-06T00:42:34.816Z,999.76
2023-03-06T00:43:34.816Z,999.70
2023-03-06T00:44:34.802Z,999.69
2023-03-06T00:45:34.809Z,999.65
2023-03-06T00:46:34.777Z,999.64
2023-03-06T00:47:34.771Z,999.69
2023-03-06T00:48:34.770Z,999.66
2023-03-06T00:49:34.757Z,999.70
2023-03-06T00:50:34.764Z,999.73
2023-03-06T00:51:34.729Z,999.66
2023-03-06T00:52:34.739Z,999.70
2023-03-06T00:53:34.711Z,999.65
2023-03-06T00:54:34.711Z,999.62
2023-03-06T00:55:34.706Z,999.60
2023-03-06T00:56:34.691Z,999.57
2023-03-06T00:57:34.676Z,999.57
2023-03-06T00:58:34.674Z,999.58
2023-03-06T00:59:34.658Z,999.55
2023-03-06T01:00:34.652Z,999.53
2023-03-06T01:01:34.639Z,999.51
2023-03-06T01:02:34.702Z,999.50
2023-03-06T01:03:34.621Z,999.50
2023-03-06T01:04:34.655Z,999.50
2023-03-06T01:05:34.622Z,999.50
2023-03-06T01:06:34.610Z,999.46
2023-03-06T01:07:34.594Z,999.43
2023-03-06T01:08:34.582Z,999.40
2023-03-06T01:09:34.560Z,999.40
2023-03-06T01:10:34.569Z,999.37
2023-03-06T01:11:34.555Z,999.28
2023-03-06T01:12:34.552Z,999.33
2023-03-06T01:13:34.528Z,999.31
2023-03-06T01:14:34.538Z,999.32
2023-03-06T01:15:34.511Z,999.30
2023-03-06T01:16:34.562Z,999.27
2023-03-06T01:17:34.515Z,999.17
2023-03-06T01:18:34.486Z,999.18
2023-03-06T01:19:34.476Z,999.19
2023-03-06T01:20:34.470Z,999.17
2023-03-06T01:21:34.473Z,999.15
2023-03-06T01:22:34.446Z,999.08
2023-03-06T01:23:34.435Z,999.11
2023-03-06T01:24:34.435Z,999.05
2023-03-06T01:25:34.440Z,999.04
2023-03-06T01:26:34.477Z,999.01
2023-03-06T01:27:34.412Z,998.97
2023-03-06T01:28:34.403Z,998.96
2023-03-06T01:29:34.379Z,998.95
2023-03-06T01:30:34.377Z,998.88
2023-03-06T01:31:34.392Z,998.87
2023-03-06T01:32:34.397Z,998.87
2023-03-06T01:33:34.348Z,998.82
2023-03-06T01:34:34.359Z,998.78
2023-03-06T01:35:34.376Z,998.80
2023-03-06T01:36:34.317Z,998.75
2023-03-06T01:37:34.317Z,998.74
2023-03-06T01:38:34.313Z,998.75
2023-03-06T01:39:34.293Z,998.73
2023-03-06T01:40:34.294Z,998.71
2023-03-06T01:41:34.276Z,998.76
2023-03-06T01:42:34.279Z,998.71
2023-03-06T01:43:34.258Z,998.72
2023-03-06T01:44:34.260Z,998.69
2023-03-06T01:45:34.262Z,998.67
2023-03-06T01:46:34.252Z,998.68
2023-03-06T01:47:34.231Z,998.66
2023-03-06T01:48:34.216Z,998.62
2023-03-06T01:49:34.206Z,998.61
2023-03-06T01:50:34.195Z,998.61
2023-03-06T01:51:34.198Z,998.59
2023-03-06T01:52:34.178Z,998.55
2023-03-06T01:53:34.181Z,998.54
2023-03-06T01:54:34.167Z,998.50
2023-03-06T01:55:34.170Z,998.50
2023-03-06T01:56:34.146Z,998.51
2023-03-06T01:57:34.145Z,998.48
2023-03-06T01:58:34.162Z,998.47
2023-03-06T01:59:34.128Z,998.44
2023-03-06T02:00:34.115Z,998.41
2023-03-06T02:01:34.095Z,998.41
2023-03-06T02:02:34.172Z,998.43
2023-03-06T02:03:34.080Z,998.43
2023-03-06T02:04:34.081Z,998.41
2023-03-06T02:05:34.075Z,998.41
2023-03-06T02:06:34.056Z,998.39
2023-03-06T02:07:34.044Z,998.41
2023-03-06T02:08:34.044Z,998.44
2023-03-06T02:09:34.034Z,998.37
2023-03-06T02:10:34.020Z,998.40
2023-03-06T02:11:34.083Z,998.39
2023-03-06T02:12:34.029Z,998.37
2023-03-06T02:13:34.002Z,998.31
2023-03-06T02:14:33.980Z,998.30
2023-03-06T02:15:33.970Z,998.30
2023-03-06T02:16:33.981Z,998.29
2023-03-06T02:17:33.950Z,998.28
2023-03-06T02:18:33.975Z,998.24
2023-03-06T02:19:33.953Z,998.25
2023-03-06T02:20:33.937Z,998.22
2023-03-06T02:21:33.912Z,998.26
2023-03-06T02:22:33.921Z,998.21
2023-03-06T02:23:33.902Z,998.21
2023-03-06T02:24:33.902Z,998.22
2023-03-06T02:25:33.886Z,998.19
2023-03-06T02:26:33.868Z,998.21
2023-03-06T02:27:33.880Z,998.20
2023-03-06T02:28:33.869Z,998.22
2023-03-06T02:29:33.858Z,998.17
2023-03-06T02:30:33.869Z,998.14
2023-03-06T02:31:33.853Z,998.14
2023-03-06T02:32:33.873Z,998.13
2023-03-06T02:33:33.808Z,998.13
2023-03-06T02:34:33.800Z,998.10
2023-03-06T02:35:33.920Z,998.06
2023-03-06T02:36:33.778Z,998.03
2023-03-06T02:37:33.774Z,998.06
2023-03-06T02:38:33.765Z,998.05
2023-03-06T02:39:33.759Z,998.06
2023-03-06T02:40:33.745Z,998.06
2023-03-06T02:41:33.731Z,998.04
2023-03-06T02:42:33.730Z,998.07
2023-03-06T02:43:33.713Z,998.06
2023-03-06T02:44:33.721Z,998.02
2023-03-06T02:45:33.689Z,998.02
2023-03-06T02:46:33.764Z,998.01
2023-03-06T02:47:33.686Z,998.02
2023-03-06T02:48:33.663Z,997.99
2023-03-06T02:49:33.677Z,997.92
2023-03-06T02:50:33.647Z,997.95
2023-03-06T02:51:33.648Z,997.98
2023-03-06T02:52:33.649Z,997.94
2023-03-06T02:53:33.625Z,997.91
2023-03-06T02:54:33.620Z,997.90
2023-03-06T02:55:33.592Z,997.89
2023-03-06T02:56:33.586Z,997.89
2023-03-06T02:57:33.580Z,997.90
2023-03-06T02:58:33.580Z,997.88
2023-03-06T02:59:33.555Z,997.84
2023-03-06T03:00:33.553Z,997.86
2023-03-06T03:01:33.569Z,997.86
2023-03-06T03:02:33.538Z,997.83
2023-03-06T03:03:33.521Z,997.83
2023-03-06T03:04:33.541Z,997.83
2023-03-06T03:05:33.496Z,997.80
2023-03-06T03:06:33.487Z,997.81
2023-03-06T03:07:33.475Z,997.78
2023-03-06T03:08:33.472Z,997.82
2023-03-06T03:09:33.472Z,997.80
2023-03-06T03:10:33.451Z,997.80
2023-03-06T03:11:33.439Z,997.79
2023-03-06T03:12:33.450Z,997.80
2023-03-06T03:13:33.424Z,997.76
2023-03-06T03:14:33.415Z,997.76
2023-03-06T03:15:33.435Z,997.76
2023-03-06T03:16:33.415Z,997.74
2023-03-06T03:17:33.385Z,997.72
2023-03-06T03:18:33.376Z,997.72
2023-03-06T03:19:33.382Z,997.70
2023-03-06T03:20:33.361Z,997.73
2023-03-06T03:21:33.354Z,997.66
2023-03-06T03:22:33.351Z,997.68
2023-03-06T03:23:33.333Z,997.74
2023-03-06T03:24:33.330Z,997.71
2023-03-06T03:25:33.330Z,997.70
2023-03-06T03:26:33.300Z,997.70
2023-03-06T03:27:33.303Z,997.69
2023-03-06T03:28:33.288Z,997.68
2023-03-06T03:29:33.277Z,997.71
2023-03-06T03:30:33.263Z,997.72
2023-03-06T03:31:33.261Z,997.64
2023-03-06T03:32:33.308Z,997.65
2023-03-06T03:33:33.247Z,997.67
2023-03-06T03:34:33.233Z,997.65
2023-03-06T03:35:33.254Z,997.64
2023-03-06T03:36:33.212Z,997.65
2023-03-06T03:37:33.200Z,997.67
2023-03-06T03:38:33.190Z,997.66
2023-03-06T03:39:33.189Z,997.66
2023-03-06T03:40:33.176Z,997.68
2023-03-06T03:41:33.165Z,997.69
2023-03-06T03:42:33.166Z,997.60
2023-03-06T03:43:33.137Z,997.63
2023-03-06T03:44:33.134Z,997.67
2023-03-06T03:45:33.133Z,997.65
2023-03-06T03:46:33.194Z,997.66
2023-03-06T03:47:33.107Z,997.64
2023-03-06T03:48:33.106Z,997.64
2023-03-06T03:49:33.090Z,997.59
2023-03-06T03:50:33.080Z,997.64
2023-03-06T03:51:33.070Z,997.66
2023-03-06T03:52:33.063Z,997.63
2023-03-06T03:53:33.064Z,997.63
2023-03-06T03:54:33.087Z,997.64
2023-03-06T03:55:33.028Z,997.62
2023-03-06T03:56:33.022Z,997.61
2023-03-06T03:57:33.019Z,997.62
2023-03-06T03:58:33.015Z,997.58
2023-03-06T03:59:32.994Z,997.62
2023-03-06T04:00:33.019Z,997.60
2023-03-06T04:01:32.983Z,997.61
2023-03-06T04:02:32.969Z,997.65
2023-03-06T04:03:32.959Z,997.63
2023-03-06T04:04:32.972Z,997.61
2023-03-06T04:05:32.936Z,997.62
2023-03-06T04:06:32.948Z,997.62
2023-03-06T04:07:32.950Z,997.62
2023-03-06T04:08:32.916Z,997.57
2023-03-06T04:09:32.916Z,997.67
2023-03-06T04:10:32.889Z,997.64
2023-03-06T04:11:32.881Z,997.68
2023-03-06T04:12:32.866Z,997.67
2023-03-06T04:13:32.864Z,997.73
2023-03-06T04:14:32.853Z,997.77
2023-03-06T04:15:32.862Z,997.75
2023-03-06T04:16:32.927Z,997.75
2023-03-06T04:17:32.822Z,997.73
2023-03-06T04:18:32.829Z,997.81
2023-03-06T04:19:32.820Z,997.77
2023-03-06T04:20:32.808Z,997.75
2023-03-06T04:21:32.787Z,997.82
2023-03-06T04:22:32.777Z,997.83
2023-03-06T04:23:32.781Z,997.87
2023-03-06T04:24:32.765Z,997.88
2023-03-06T04:25:32.770Z,997.87
2023-03-06T04:26:32.761Z,997.85
2023-03-06T04:27:32.752Z,997.86
2023-03-06T04:28:32.738Z,997.86
2023-03-06T04:29:32.724Z,997.89
2023-03-06T04:30:32.727Z,997.91
2023-03-06T04:31:32.756Z,997.89
2023-03-06T04:32:32.768Z,997.86
2023-03-06T04:33:32.690Z,997.87
2023-03-06T04:34:32.690Z,997.92
2023-03-06T04:35:32.703Z,997.95
2023-03-06T04:36:32.652Z,997.92
2023-03-06T04:37:39.827Z,997.89
2023-03-06T04:39:36.661Z,997.91
2023-03-06T04:40:36.644Z,997.90
2023-03-06T04:42:40.617Z,997.93
2023-03-06T04:43:40.568Z,997.95
2023-03-06T04:45:44.585Z,997.99
2023-03-06T04:46:44.567Z,997.93
2023-03-06T04:48:37.450Z,997.97
2023-03-06T04:49:37.444Z,997.95
2023-03-06T04:51:41.476Z,998.02
2023-03-06T04:52:41.427Z,998.01
2023-03-06T04:54:45.438Z,998.06
2023-03-06T04:55:45.433Z,998.01
2023-03-06T04:57:49.439Z,998.01
2023-03-06T04:58:49.402Z,997.98
2023-03-06T05:00:53.405Z,997.97
2023-03-06T05:01:53.399Z,998.00
2023-03-06T05:03:57.393Z,997.98
2023-03-06T05:04:57.374Z,997.98
2023-03-06T05:07:01.318Z,997.99
2023-03-06T05:08:01.304Z,997.99
2023-03-06T05:10:05.358Z,997.98
2023-03-06T05:11:05.284Z,997.97
2023-03-06T05:13:10.274Z,998.03
2023-03-06T05:14:10.276Z,997.99
2023-03-06T05:16:14.340Z,998.09
2023-03-06T05:17:14.226Z,998.07
2023-03-06T05:19:18.237Z,998.09
2023-03-06T05:20:18.210Z,998.07
2023-03-06T05:22:22.210Z,998.06
2023-03-06T05:23:22.192Z,998.07
2023-03-06T05:25:26.192Z,998.13
2023-03-06T05:26:26.188Z,998.10
2023-03-06T05:27:26.168Z,998.11
2023-03-06T05:28:26.187Z,998.13
2023-03-06T05:29:26.153Z,998.10
2023-03-06T05:30:26.146Z,998.10
2023-03-06T05:31:26.149Z,998.10
2023-03-06T05:32:26.172Z,998.12
2023-03-06T05:33:26.137Z,998.10
2023-03-06T05:34:26.110Z,998.13
2023-03-06T05:35:26.119Z,998.13
2023-03-06T05:36:26.102Z,998.12
2023-03-06T05:37:26.080Z,998.18
2023-03-06T05:38:26.078Z,998.17
2023-03-06T05:39:26.063Z,998.14
2023-03-06T05:40:26.074Z,998.11
2023-03-06T05:41:26.084Z,998.16
2023-03-06T05:42:28.507Z,998.19
2023-03-06T05:43:26.038Z,998.17
2023-03-06T05:44:26.033Z,998.20
2023-03-06T05:45:26.020Z,998.20
2023-03-06T05:46:26.014Z,998.17
2023-03-06T05:47:26.001Z,998.17
2023-03-06T05:48:25.992Z,998.14
2023-03-06T05:49:25.989Z,998.15
2023-03-06T05:50:26.017Z,998.18
2023-03-06T05:51:25.964Z,998.16
2023-03-06T05:52:25.963Z,998.16
2023-03-06T05:53:25.962Z,998.11
2023-03-06T05:54:25.965Z,998.16
2023-03-06T05:55:25.930Z,998.13
2023-03-06T05:56:25.990Z,998.13
2023-03-06T05:57:25.914Z,998.16
2023-03-06T05:58:25.906Z,998.13
2023-03-06T05:59:25.902Z,998.15
2023-03-06T06:00:25.905Z,998.15
2023-03-06T06:01:25.875Z,998.13
2023-03-06T06:02:25.905Z,998.13
2023-03-06T06:03:25.954Z,998.13
2023-03-06T06:04:25.850Z,998.15
2023-03-06T06:05:25.847Z,998.11
2023-03-06T06:06:25.856Z,998.14
2023-03-06T06:07:25.823Z,998.09
2023-03-06T06:08:25.824Z,998.12
2023-03-06T06:09:25.844Z,998.20
2023-03-06T06:10:25.810Z,998.16
2023-03-06T06:11:25.786Z,998.20
2023-03-06T06:12:25.784Z,998.17
2023-03-06T06:13:25.768Z,998.20
2023-03-06T06:14:25.765Z,998.19
2023-03-06T06:15:25.771Z,998.21
2023-03-06T06:16:25.801Z,998.21
2023-03-06T06:17:25.769Z,998.20
2023-03-06T06:18:25.755Z,998.22
2023-03-06T06:19:25.728Z,998.20
2023-03-06T06:20:25.727Z,998.21
2023-03-06T06:21:25.705Z,998.20
2023-03-06T06:22:25.727Z,998.23
2023-03-06T06:23:25.683Z,998.24
2023-03-06T06:24:25.692Z,998.26
2023-03-06T06:25:25.685Z,998.25
2023-03-06T06:26:25.676Z,998.28
2023-03-06T06:27:25.650Z,998.29
2023-03-06T06:28:25.654Z,998.31
2023-03-06T06:29:25.642Z,998.33
2023-03-06T06:30:25.623Z,998.32
2023-03-06T06:31:25.683Z,998.32
2023-03-06T06:32:25.704Z,998.36
2023-03-06T06:33:25.593Z,998.34
2023-03-06T06:34:25.594Z,998.31
2023-03-06T06:35:25.606Z,998.28
2023-03-06T06:36:25.574Z,998.33
2023-03-06T06:37:25.566Z,998.34
2023-03-06T06:38:25.564Z,998.31
2023-03-06T06:39:25.564Z,998.33
2023-03-06T06:40:25.601Z,998.35
2023-03-06T06:42:34.151Z,998.34
2023-03-06T06:43:25.517Z,998.32
2023-03-06T06:44:25.523Z,998.35
2023-03-06T06:45:25.487Z,998.34
2023-03-06T06:47:14.384Z,998.35
2023-03-06T06:47:26.086Z,998.33
2023-03-06T06:48:25.473Z,998.38
2023-03-06T06:49:25.515Z,998.35
2023-03-06T06:50:25.452Z,998.39
2023-03-06T06:51:25.466Z,998.37
2023-03-06T06:52:25.482Z,998.33
2023-03-06T06:53:27.394Z,998.38
2023-03-06T06:54:25.414Z,998.38
2023-03-06T06:55:25.420Z,998.43
2023-03-06T06:56:25.400Z,998.38
2023-03-06T06:57:25.398Z,998.41
2023-03-06T06:58:25.379Z,998.37
2023-03-06T06:59:25.371Z,998.43
2023-03-06T07:00:25.361Z,998.41
2023-03-06T07:01:25.441Z,998.41
2023-03-06T07:02:25.419Z,998.43
2023-03-06T07:03:25.337Z,998.39
2023-03-06T07:04:25.368Z,998.42
2023-03-06T07:05:25.329Z,998.41
2023-03-06T07:06:25.307Z,998.44
2023-03-06T07:07:26.504Z,998.42
2023-03-06T07:08:25.305Z,998.43
2023-03-06T07:09:25.309Z,998.41
2023-03-06T07:10:25.346Z,998.37
2023-03-06T07:11:25.274Z,998.42
2023-03-06T07:12:25.251Z,998.42
2023-03-06T07:13:25.248Z,998.42
2023-03-06T07:14:25.308Z,998.44
2023-03-06T07:15:25.238Z,998.38
2023-03-06T07:16:25.246Z,998.37
2023-03-06T07:17:25.243Z,998.39
2023-03-06T07:18:25.212Z,998.42
2023-03-06T07:19:25.292Z,998.39
2023-03-06T07:20:25.219Z,998.37
2023-03-06T07:21:25.182Z,998.44
2023-03-06T07:22:25.184Z,998.45
2023-03-06T07:23:25.154Z,998.40
2023-03-06T07:24:25.187Z,998.39
2023-03-06T07:25:25.137Z,998.43
2023-03-06T07:26:25.153Z,998.39
2023-03-06T07:27:25.182Z,998.42
2023-03-06T07:28:25.130Z,998.44
2023-03-06T07:29:25.122Z,998.43
2023-03-06T07:30:25.102Z,998.47
2023-03-06T07:31:25.137Z,998.49
2023-03-06T07:32:25.127Z,998.49
2023-03-06T07:33:25.075Z,998.44
2023-03-06T07:34:25.090Z,998.42
2023-03-06T07:35:25.067Z,998.45
2023-03-06T07:36:25.078Z,998.43
2023-03-06T07:37:25.032Z,998.42
2023-03-06T07:38:25.038Z,998.45
2023-03-06T07:39:25.014Z,998.46
2023-03-06T07:40:25.011Z,998.42
2023-03-06T07:41:25.017Z,998.46
2023-03-06T07:42:25.052Z,998.42
2023-03-06T07:43:24.992Z,998.38
2023-03-06T07:44:25.020Z,998.43
2023-03-06T07:45:25.003Z,998.41
2023-03-06T07:46:25.012Z,998.40
2023-03-06T07:47:24.959Z,998.43
2023-03-06T07:48:24.956Z,998.44
2023-03-06T07:49:24.936Z,998.43
2023-03-06T07:50:24.933Z,998.45
2023-03-06T07:51:24.927Z,998.45
2023-03-06T07:52:24.923Z,998.44
2023-03-06T07:53:24.912Z,998.44
2023-03-06T07:54:24.893Z,998.45
2023-03-06T07:55:24.886Z,998.52
2023-03-06T07:56:24.884Z,998.49
2023-03-06T07:57:24.896Z,998.47
2023-03-06T07:58:24.882Z,998.48
2023-03-06T07:59:24.854Z,998.48
2023-03-06T08:00:24.891Z,998.48
2023-03-06T08:01:24.862Z,998.45
2023-03-06T08:02:24.838Z,998.51
2023-03-06T08:03:24.835Z,998.44
2023-03-06T08:04:24.854Z,998.47
2023-03-06T08:05:24.800Z,998.48
2023-03-06T08:06:24.807Z,998.48
2023-03-06T08:07:24.791Z,998.51
2023-03-06T08:08:24.794Z,998.52
2023-03-06T08:09:24.797Z,998.53
2023-03-06T08:10:24.770Z,998.52
2023-03-06T08:11:24.754Z,998.54
2023-03-06T08:12:24.759Z,998.49
2023-03-06T08:13:24.743Z,998.55
2023-03-06T08:14:24.782Z,998.51
2023-03-06T08:15:24.718Z,998.55
2023-03-06T08:16:24.722Z,998.50
2023-03-06T08:17:24.706Z,998.49
2023-03-06T08:18:24.701Z,998.54
2023-03-06T08:19:24.685Z,998.51
2023-03-06T08:20:24.749Z,998.53
2023-03-06T08:21:24.704Z,998.51
2023-03-06T08:22:24.704Z,998.50
2023-03-06T08:23:24.665Z,998.50
2023-03-06T08:24:24.647Z,998.51
2023-03-06T08:25:24.634Z,998.51
2023-03-06T08:26:24.634Z,998.50
2023-03-06T08:27:24.617Z,998.53
2023-03-06T08:28:24.613Z,998.51
2023-03-06T08:29:24.596Z,998.49
2023-03-06T08:30:24.678Z,998.52
2023-03-06T08:31:24.641Z,998.56
2023-03-06T08:32:24.647Z,998.52
2023-03-06T08:33:24.566Z,998.57
2023-03-06T08:34:24.598Z,998.53
2023-03-06T08:35:24.583Z,998.51
2023-03-06T08:36:24.530Z,998.50
2023-03-06T08:37:24.560Z,998.51
2023-03-06T08:38:24.537Z,998.53
2023-03-06T08:39:24.525Z,998.54
2023-03-06T08:40:24.582Z,998.52
2023-03-06T08:41:24.498Z,998.51
2023-03-06T08:42:24.486Z,998.53
2023-03-06T08:43:24.480Z,998.56
2023-03-06T08:44:24.470Z,998.60
2023-03-06T08:45:24.505Z,998.58
2023-03-06T08:46:24.469Z,998.62
2023-03-06T08:47:24.571Z,998.64
2023-03-06T08:48:24.431Z,998.64
2023-03-06T08:49:24.434Z,998.65
2023-03-06T08:50:24.462Z,998.68
2023-03-06T08:51:24.428Z,998.67
2023-03-06T08:52:24.410Z,998.68
2023-03-06T08:53:36.660Z,998.71
2023-03-06T08:54:24.385Z,998.69
2023-03-06T08:55:24.376Z,998.73
2023-03-06T08:56:24.450Z,998.68
2023-03-06T08:57:24.461Z,998.70
2023-03-06T08:58:24.388Z,998.71
2023-03-06T08:59:24.364Z,998.72
2023-03-06T09:00:24.364Z,998.73
2023-03-06T09:01:24.378Z,998.72
2023-03-06T09:02:24.400Z,998.73
2023-03-06T09:03:24.308Z,998.72
2023-03-06T09:04:24.331Z,998.76
2023-03-06T09:05:24.326Z,998.74
2023-03-06T09:06:24.286Z,998.74
2023-03-06T09:07:24.281Z,998.78
2023-03-06T09:08:24.262Z,998.75
2023-03-06T09:09:24.266Z,998.72
2023-03-06T09:10:24.374Z,998.77
2023-03-06T09:11:24.301Z,998.80
2023-03-06T09:12:24.243Z,998.78
2023-03-06T09:13:24.286Z,998.81
2023-03-06T09:14:24.223Z,998.77
2023-03-06T09:15:24.293Z,998.77
2023-03-06T09:16:24.303Z,998.73
2023-03-06T09:17:24.295Z,998.71
2023-03-06T09:18:24.187Z,998.69
2023-03-06T09:19:24.168Z,998.72
2023-03-06T09:20:24.237Z,998.72
2023-03-06T09:21:24.151Z,998.69
2023-03-06T09:22:24.231Z,998.70
2023-03-06T09:23:24.143Z,998.71
2023-03-06T09:24:24.128Z,998.69
2023-03-06T09:25:24.225Z,998.67
2023-03-06T09:26:32.815Z,998.70
2023-03-06T09:27:24.128Z,998.75
2023-03-06T09:28:24.099Z,998.78
2023-03-06T09:29:24.080Z,998.70
2023-03-06T09:30:24.107Z,998.81
2023-03-06T09:31:24.070Z,998.76
2023-03-06T09:32:24.081Z,998.81
2023-03-06T09:33:24.062Z,998.79
2023-03-06T09:34:24.055Z,998.80
2023-03-06T09:35:24.086Z,998.80
2023-03-06T09:36:24.034Z,998.77
2023-03-06T09:37:24.011Z,998.80
2023-03-06T09:38:23.996Z,998.78
2023-03-06T09:39:24.027Z,998.78
2023-03-06T09:40:24.102Z,998.79
2023-03-06T09:41:23.976Z,998.79
2023-03-06T09:42:23.976Z,998.76
2023-03-06T09:43:23.966Z,998.78
2023-03-06T09:44:23.965Z,998.79
2023-03-06T09:45:23.981Z,998.82
2023-03-06T09:46:23.979Z,998.83
2023-03-06T09:47:23.928Z,998.79
2023-03-06T09:48:23.910Z,998.78
2023-03-06T09:49:23.910Z,998.79
2023-03-06T09:50:23.937Z,998.79
2023-03-06T09:51:23.887Z,998.70
2023-03-06T09:52:23.868Z,998.75
2023-03-06T09:53:23.896Z,998.78
2023-03-06T09:54:23.850Z,998.77
2023-03-06T09:55:23.855Z,998.71
2023-03-06T09:56:23.847Z,998.77
2023-03-06T09:57:23.853Z,998.73
2023-03-06T09:58:23.830Z,998.74
2023-03-06T09:59:23.830Z,998.71
2023-03-06T10:00:23.831Z,998.70
2023-03-06T10:01:23.797Z,998.73
2023-03-06T10:02:23.895Z,998.73
2023-03-06T10:03:23.886Z,998.72
2023-03-06T10:04:23.768Z,998.73
2023-03-06T10:05:23.754Z,998.75
2023-03-06T10:06:23.752Z,998.75
2023-03-06T10:07:23.760Z,998.74
2023-03-06T10:08:23.742Z,998.78
2023-03-06T10:09:23.801Z,998.75
2023-03-06T10:10:23.709Z,998.77
2023-03-06T10:11:23.739Z,998.76
2023-03-06T10:12:24.814Z,998.81
2023-03-06T10:13:23.696Z,998.80
2023-03-06T10:14:23.716Z,998.81
2023-03-06T10:15:23.694Z,998.78
2023-03-06T10:16:23.664Z,998.80
2023-03-06T10:17:23.764Z,998.83
2023-03-06T10:18:23.665Z,998.77
2023-03-06T10:19:23.652Z,998.79
2023-03-06T10:20:23.682Z,998.78
2023-03-06T10:21:23.620Z,998.78
2023-03-06T10:22:23.656Z,998.78
2023-03-06T10:23:23.615Z,998.83
2023-03-06T10:24:23.600Z,998.82
2023-03-06T10:25:23.638Z,998.85
2023-03-06T10:26:23.658Z,998.88
2023-03-06T10:27:23.613Z,998.83
2023-03-06T10:28:23.657Z,998.85
2023-03-06T10:29:23.562Z,998.83
2023-03-06T10:30:23.554Z,998.86
2023-03-06T10:31:23.607Z,998.80
2023-03-06T10:32:23.552Z,998.80
2023-03-06T10:33:23.545Z,998.79
2023-03-06T10:34:23.591Z,998.80
2023-03-06T10:35:23.593Z,998.81
2023-03-06T10:36:23.509Z,998.83
2023-03-06T10:37:23.514Z,998.86
2023-03-06T10:38:23.718Z,998.84
2023-03-06T10:39:23.501Z,998.88
2023-03-06T10:40:23.454Z,998.85
2023-03-06T10:41:23.483Z,998.87
2023-03-06T10:42:23.433Z,998.87
2023-03-06T10:43:23.445Z,998.83
2023-03-06T10:44:23.437Z,998.81
2023-03-06T10:45:23.432Z,998.78
2023-03-06T10:46:23.468Z,998.76
2023-03-06T10:47:23.446Z,998.81
2023-03-06T10:48:23.393Z,998.80
2023-03-06T10:49:23.389Z,998.81
2023-03-06T10:50:23.398Z,998.78
2023-03-06T10:51:23.371Z,998.86
2023-03-06T10:52:23.391Z,998.85
2023-03-06T10:53:23.384Z,998.83
2023-03-06T10:54:23.352Z,998.84
2023-03-06T10:55:23.381Z,998.83
2023-03-06T10:56:23.322Z,998.80
2023-03-06T10:57:23.317Z,998.81
2023-03-06T10:58:23.356Z,998.83
2023-03-06T10:59:23.298Z,998.83
2023-03-06T11:00:23.285Z,998.79
2023-03-06T11:01:23.313Z,998.84
2023-03-06T11:02:23.305Z,998.82
2023-03-06T11:03:23.291Z,998.82
2023-03-06T11:04:23.465Z,998.81
2023-03-06T11:05:23.265Z,998.83
2023-03-06T11:06:23.244Z,998.87
2023-03-06T11:07:23.233Z,998.78
2023-03-06T11:08:23.244Z,998.78
2023-03-06T11:09:23.230Z,998.80
2023-03-06T11:10:23.228Z,998.80
2023-03-06T11:11:36.900Z,998.83
2023-03-06T11:12:23.193Z,998.81
2023-03-06T11:13:23.181Z,998.81
2023-03-06T11:14:23.271Z,998.82
2023-03-06T11:15:23.294Z,998.80
2023-03-06T11:16:25.636Z,998.75
2023-03-06T11:17:23.178Z,998.72
2023-03-06T11:18:23.137Z,998.72
2023-03-06T11:19:23.153Z,998.73
2023-03-06T11:20:23.142Z,998.69
2023-03-06T11:21:23.121Z,998.73
2023-03-06T11:22:23.095Z,998.73
2023-03-06T11:23:23.103Z,998.73
2023-03-06T11:24:23.097Z,998.72
2023-03-06T11:25:23.084Z,998.72
2023-03-06T11:26:23.086Z,998.74
2023-03-06T11:27:23.063Z,998.71
2023-03-06T11:28:23.063Z,998.69
2023-03-06T11:29:23.128Z,998.67
2023-03-06T11:30:23.043Z,998.68
2023-03-06T11:31:23.102Z,998.67
2023-03-06T11:32:23.089Z,998.72
2023-03-06T11:33:23.008Z,998.66
2023-03-06T11:34:22.995Z,998.70
2023-03-06T11:35:23.082Z,998.67
2023-03-06T11:36:22.976Z,998.67
2023-03-06T11:37:22.973Z,998.67
2023-03-06T11:38:22.976Z,998.63
2023-03-06T11:39:22.977Z,998.62
2023-03-06T11:40:22.938Z,998.62
2023-03-06T11:41:22.935Z,998.62
2023-03-06T11:42:22.928Z,998.63
2023-03-06T11:43:22.923Z,998.65
2023-03-06T11:44:22.907Z,998.65
2023-03-06T11:45:22.926Z,998.63
2023-03-06T11:46:23.039Z,998.60
2023-03-06T11:47:22.888Z,998.61
2023-03-06T11:48:22.872Z,998.59
2023-03-06T11:49:22.878Z,998.62
2023-03-06T11:50:22.870Z,998.57
2023-03-06T11:51:22.926Z,998.55
2023-03-06T11:52:22.848Z,998.56
2023-03-06T11:53:22.853Z,998.56
2023-03-06T11:54:22.837Z,998.54
2023-03-06T11:55:22.827Z,998.48
2023-03-06T11:56:22.865Z,998.49
2023-03-06T11:57:22.817Z,998.52
2023-03-06T11:58:22.806Z,998.53
2023-03-06T11:59:22.786Z,998.54
2023-03-06T12:00:22.830Z,998.52
2023-03-06T12:01:22.770Z,998.51
2023-03-06T12:02:22.814Z,998.46
2023-03-06T12:03:22.777Z,998.50
2023-03-06T12:04:22.772Z,998.48
2023-03-06T12:05:22.806Z,998.49
2023-03-06T12:06:22.742Z,998.52
2023-03-06T12:07:22.721Z,998.50
2023-03-06T12:08:22.717Z,998.46
2023-03-06T12:09:22.738Z,998.49
2023-03-06T12:10:22.705Z,998.49
2023-03-06T12:11:22.702Z,998.49
2023-03-06T12:12:22.681Z,998.43
2023-03-06T12:13:22.709Z,998.40
2023-03-06T12:14:22.671Z,998.40
2023-03-06T12:15:22.669Z,998.42
2023-03-06T12:16:22.705Z,998.39
2023-03-06T12:17:22.671Z,998.40
2023-03-06T12:18:22.631Z,998.42
2023-03-06T12:19:22.630Z,998.44
2023-03-06T12:20:22.614Z,998.44
2023-03-06T12:21:22.612Z,998.40
2023-03-06T12:22:22.658Z,998.37
2023-03-06T12:23:22.605Z,998.42
2023-03-06T12:24:22.594Z,998.34
2023-03-06T12:25:22.643Z,998.40
2023-03-06T12:26:22.602Z,998.39
2023-03-06T12:27:22.564Z,998.38
2023-03-06T12:28:22.558Z,998.38
2023-03-06T12:29:22.554Z,998.38
2023-03-06T12:30:22.548Z,998.37
2023-03-06T12:31:22.570Z,998.35
2023-03-06T12:32:22.537Z,998.35
2023-03-06T12:33:22.511Z,998.32
2023-03-06T12:34:22.523Z,998.31
2023-03-06T12:35:22.567Z,998.35
2023-03-06T12:36:22.495Z,998.33
2023-03-06T12:37:22.489Z,998.33
2023-03-06T12:38:22.512Z,998.31
2023-03-06T12:39:22.486Z,998.36
2023-03-06T12:40:22.492Z,998.38
2023-03-06T12:41:22.526Z,998.40
2023-03-06T12:42:23.817Z,998.38
2023-03-06T12:43:22.436Z,998.36
2023-03-06T12:44:22.446Z,998.42
2023-03-06T12:45:22.441Z,998.39